createdAt,value
2022-12-08T00:01:30.683Z,99005.41
2022-12-08T00:03:59.939Z,99009.18
2022-12-08T00:06:48.014Z,99008.48
2022-12-08T00:09:39.878Z,99016.23
2022-12-08T00:12:10.316Z,99001.01
2022-12-08T00:14:43.438Z,99004.05
2022-12-08T00:17:14.954Z,99004.37
2022-12-08T00:19:43.953Z,99011.65
2022-12-08T00:22:12.786Z,99009.92
2022-12-08T00:24:45.467Z,99013.98
2022-12-08T00:27:16.812Z,99009.83
2022-12-08T00:29:45.509Z,99016.43
2022-12-08T00:32:13.316Z,99019.73
2022-12-08T00:34:42.023Z,99022.52
2022-12-08T00:37:09.597Z,99024.81
2022-12-08T00:39:38.206Z,99029.30
2022-12-08T00:42:11.995Z,99028.66
2022-12-08T00:44:45.044Z,99027.95
2022-12-08T00:47:13.966Z,99028.98
2022-12-08T00:49:42.265Z,99025.55
2022-12-08T00:52:09.918Z,99024.21
2022-12-08T00:54:37.509Z,99025.20
2022-12-08T00:57:05.116Z,99035.36
2022-12-08T00:59:32.770Z,99041.22
2022-12-08T01:02:00.378Z,99046.20
2022-12-08T01:04:27.984Z,99051.16
2022-12-08T01:06:55.632Z,99048.21
2022-12-08T01:09:23.266Z,99050.36
2022-12-08T01:11:51.040Z,99048.31
2022-12-08T01:14:18.722Z,99051.66
2022-12-08T01:16:47.131Z,99053.34
2022-12-08T01:19:17.045Z,99054.52
2022-12-08T01:21:46.117Z,99060.48
2022-12-08T01:24:18.395Z,99066.48
2022-12-08T01:26:47.271Z,99065.95
2022-12-08T01:29:15.123Z,99070.41
2022-12-08T01:31:42.849Z,99071.86
2022-12-08T01:34:12.003Z,99071.38
2022-12-08T01:36:40.199Z,99073.36
2022-12-08T01:39:11.018Z,99074.48
2022-12-08T01:41:39.521Z,99071.98
2022-12-08T01:44:08.241Z,99075.25
2022-12-08T01:46:41.322Z,99076.72
2022-12-08T01:49:22.634Z,99083.14
2022-12-08T01:52:22.259Z,99086.16
2022-12-08T01:55:00.090Z,99094.90
2022-12-08T01:57:50.040Z,99094.18
2022-12-08T02:00:20.771Z,99094.52
2022-12-08T02:03:09.089Z,99095.98
2022-12-08T02:05:39.753Z,99107.26
2022-12-08T02:08:10.963Z,99094.91
2022-12-08T02:10:41.336Z,99092.54
2022-12-08T02:13:13.175Z,99099.42
2022-12-08T02:15:56.894Z,99102.25
2022-12-08T02:18:42.931Z,99103.16
2022-12-08T02:21:43.473Z,99096.80
2022-12-08T02:24:23.389Z,99098.00
2022-12-08T02:27:23.014Z,99100.13
2022-12-08T02:30:22.668Z,99104.38
2022-12-08T02:33:17.387Z,99105.08
2022-12-08T02:35:58.520Z,99103.90
2022-12-08T02:38:44.947Z,99113.87
2022-12-08T02:41:30.571Z,99112.27
2022-12-08T02:44:22.613Z,99113.94
2022-12-08T02:47:05.757Z,99116.68
2022-12-08T02:49:34.853Z,99121.75
2022-12-08T02:52:11.505Z,99114.45
2022-12-08T02:54:43.998Z,99115.47
2022-12-08T02:57:27.607Z,99123.76
2022-12-08T02:59:57.952Z,99122.83
2022-12-08T03:02:57.653Z,99124.45
2022-12-08T03:05:28.042Z,99123.70
2022-12-08T03:08:00.448Z,99127.53
2022-12-08T03:10:35.233Z,99125.75
2022-12-08T03:13:09.800Z,99128.65
2022-12-08T03:15:38.773Z,99128.86
2022-12-08T03:18:10.979Z,99127.12
2022-12-08T03:20:40.728Z,99124.80
2022-12-08T03:23:11.994Z,99131.25
2022-12-08T03:25:46.756Z,99135.21
2022-12-08T03:28:14.759Z,99133.86
2022-12-08T03:30:47.323Z,99134.74
2022-12-08T03:33:23.044Z,99138.30
2022-12-08T03:35:51.849Z,99147.40
2022-12-08T03:38:19.834Z,99149.80
2022-12-08T03:41:10.274Z,99149.86
2022-12-08T03:43:37.907Z,99153.88
2022-12-08T03:46:05.561Z,99157.45
2022-12-08T03:48:33.194Z,99163.38
2022-12-08T03:51:00.753Z,99157.73
2022-12-08T03:53:28.326Z,99161.45
2022-12-08T03:55:55.898Z,99164.79
2022-12-08T03:58:24.685Z,99159.16
2022-12-08T04:00:52.583Z,99160.11
2022-12-08T04:03:20.210Z,99161.72
2022-12-08T04:05:48.152Z,99157.23
2022-12-08T04:08:15.845Z,99161.08
2022-12-08T04:10:43.577Z,99165.94
2022-12-08T04:13:11.150Z,99167.94
2022-12-08T04:15:38.805Z,99172.09
2022-12-08T04:18:06.398Z,99168.75
2022-12-08T04:20:33.974Z,99170.04
2022-12-08T04:23:01.532Z,99177.33
2022-12-08T04:25:30.389Z,99174.05
2022-12-08T04:27:57.952Z,99176.71
2022-12-08T04:30:25.566Z,99178.45
2022-12-08T04:32:53.216Z,99179.27
2022-12-08T04:35:20.853Z,99182.35
2022-12-08T04:37:48.474Z,99178.00
2022-12-08T04:40:16.120Z,99172.57
2022-12-08T04:42:44.291Z,99180.73
2022-12-08T04:45:11.895Z,99178.46
2022-12-08T04:47:40.571Z,99176.11
2022-12-08T04:50:09.875Z,99184.83
2022-12-08T04:52:37.494Z,99182.94
2022-12-08T04:55:05.482Z,99192.14
2022-12-08T04:57:33.063Z,99194.10
2022-12-08T05:00:00.623Z,99192.58
2022-12-08T05:02:28.315Z,99198.56
2022-12-08T05:04:56.073Z,99200.83
2022-12-08T05:07:23.686Z,99200.84
2022-12-08T05:09:51.351Z,99203.67
2022-12-08T05:12:19.011Z,99200.29
2022-12-08T05:14:47.998Z,99200.28
2022-12-08T05:17:19.005Z,99202.54
2022-12-08T05:19:46.723Z,99202.38
2022-12-08T05:22:14.317Z,99206.04
2022-12-08T05:24:47.245Z,99208.76
2022-12-08T05:27:15.486Z,99207.73
2022-12-08T05:29:43.151Z,99211.71
2022-12-08T05:32:10.762Z,99212.20
2022-12-08T05:34:38.352Z,99213.48
2022-12-08T05:37:07.033Z,99219.39
2022-12-08T05:39:34.712Z,99213.80
2022-12-08T05:42:02.764Z,99220.27
2022-12-08T05:44:30.341Z,99221.94
2022-12-08T05:46:58.082Z,99221.13
2022-12-08T05:49:26.182Z,99223.14
2022-12-08T05:51:53.771Z,99229.17
2022-12-08T05:54:21.366Z,99224.78
2022-12-08T05:56:49.259Z,99228.86
2022-12-08T05:59:16.843Z,99234.36
2022-12-08T06:01:46.481Z,99236.20
2022-12-08T06:04:22.135Z,99237.51
2022-12-08T06:06:49.711Z,99240.33
2022-12-08T06:09:17.316Z,99242.64
2022-12-08T06:11:46.461Z,99240.66
2022-12-08T06:14:14.293Z,99240.86
2022-12-08T06:16:41.945Z,99245.75
2022-12-08T06:19:09.703Z,99247.30
2022-12-08T06:21:37.398Z,99247.03
2022-12-08T06:24:05.050Z,99249.84
2022-12-08T06:26:32.680Z,99255.09
2022-12-08T06:29:00.718Z,99258.02
2022-12-08T06:31:28.533Z,99265.58
2022-12-08T06:33:56.582Z,99268.05
2022-12-08T06:36:26.556Z,99276.04
2022-12-08T06:38:54.323Z,99273.13
2022-12-08T06:41:22.144Z,99279.65
2022-12-08T06:43:49.863Z,99285.27
2022-12-08T06:46:19.726Z,99282.14
2022-12-08T06:48:47.927Z,99284.13
2022-12-08T06:51:18.307Z,99289.09
2022-12-08T06:53:46.917Z,99292.39
2022-12-08T06:56:20.441Z,99293.06
2022-12-08T06:58:52.778Z,99296.84
2022-12-08T07:01:25.904Z,99296.95
2022-12-08T07:03:54.140Z,99292.21
2022-12-08T07:06:24.841Z,99292.73
2022-12-08T07:08:52.710Z,99295.15
2022-12-08T07:11:22.243Z,99298.98
2022-12-08T07:13:51.075Z,99302.30
2022-12-08T07:16:18.834Z,99303.44
2022-12-08T07:18:46.657Z,99311.36
2022-12-08T07:21:15.364Z,99311.58
2022-12-08T07:23:46.200Z,99319.06
2022-12-08T07:26:13.884Z,99320.20
2022-12-08T07:28:42.551Z,99320.11
2022-12-08T07:31:22.739Z,99328.52
2022-12-08T07:33:52.921Z,99330.52
2022-12-08T07:36:21.282Z,99333.74
2022-12-08T07:38:49.296Z,99338.21
2022-12-08T07:41:19.522Z,99328.73
2022-12-08T07:43:47.943Z,99335.10
2022-12-08T07:46:21.124Z,99332.08
2022-12-08T07:48:49.201Z,99332.84
2022-12-08T07:51:18.784Z,99340.12
2022-12-08T07:53:53.866Z,99344.48
2022-12-08T07:56:22.904Z,99345.94
2022-12-08T07:58:50.796Z,99350.83
2022-12-08T08:01:26.009Z,99351.75
2022-12-08T08:03:57.158Z,99352.95
2022-12-08T08:06:25.089Z,99351.60
2022-12-08T08:08:52.809Z,99357.75
2022-12-08T08:11:21.793Z,99350.48
2022-12-08T08:13:51.151Z,99349.08
2022-12-08T08:16:19.630Z,99355.77
2022-12-08T08:18:49.254Z,99359.86
2022-12-08T08:24:05.795Z,99364.69
2022-12-08T08:26:33.716Z,99361.30
2022-12-08T08:29:01.367Z,99365.33
2022-12-08T08:31:28.997Z,99365.38
2022-12-08T08:33:57.040Z,99360.46
2022-12-08T08:36:24.675Z,99362.47
2022-12-08T08:38:52.295Z,99362.73
2022-12-08T08:41:19.877Z,99362.23
2022-12-08T08:43:47.483Z,99363.91
2022-12-08T08:46:15.160Z,99368.15
2022-12-08T08:48:42.826Z,99365.17
2022-12-08T08:51:13.526Z,99365.00
2022-12-08T08:53:42.702Z,99365.52
2022-12-08T08:56:12.638Z,99363.91
2022-12-08T08:58:40.505Z,99365.61
2022-12-08T09:01:08.235Z,99367.71
2022-12-08T09:03:35.796Z,99368.40
2022-12-08T09:06:03.445Z,99366.02
2022-12-08T09:08:31.306Z,99372.80
2022-12-08T09:10:59.044Z,99371.78
2022-12-08T09:13:26.641Z,99367.86
2022-12-08T09:15:54.253Z,99367.58
2022-12-08T09:18:21.793Z,99363.48
2022-12-08T09:20:49.468Z,99361.90
2022-12-08T09:23:17.034Z,99358.48
2022-12-08T09:25:45.615Z,99354.39
2022-12-08T09:28:14.170Z,99354.60
2022-12-08T09:30:41.844Z,99355.89
2022-12-08T09:33:09.437Z,99355.09
2022-12-08T09:35:37.065Z,99357.23
2022-12-08T09:38:05.088Z,99354.77
2022-12-08T09:40:39.879Z,99352.89
2022-12-08T09:43:37.219Z,99354.64
2022-12-08T09:46:09.449Z,99350.33
2022-12-08T09:48:46.204Z,99353.53
2022-12-08T09:51:16.033Z,99348.27
2022-12-08T09:53:52.911Z,99341.39
2022-12-08T09:56:27.590Z,99344.14
2022-12-08T09:59:11.198Z,99341.00
2022-12-08T10:01:43.498Z,99336.21
2022-12-08T10:04:22.081Z,99333.57
2022-12-08T10:07:11.768Z,99330.41
2022-12-08T10:10:02.517Z,99330.92
2022-12-08T10:12:51.820Z,99320.23
2022-12-08T10:15:36.464Z,99316.69
2022-12-08T10:18:12.372Z,99307.61
2022-12-08T10:20:42.539Z,99305.69
2022-12-08T10:23:13.239Z,99309.96
2022-12-08T10:25:50.282Z,99303.36
2022-12-08T10:28:17.901Z,99301.42
2022-12-08T10:30:45.522Z,99303.15
2022-12-08T10:33:16.783Z,99300.92
2022-12-08T10:35:53.487Z,99293.60
2022-12-08T10:38:38.111Z,99290.81
2022-12-08T10:41:12.251Z,99290.39
2022-12-08T10:43:46.493Z,99285.13
2022-12-08T10:46:27.123Z,99278.92
2022-12-08T10:49:10.569Z,99283.13
2022-12-08T10:51:41.505Z,99280.06
2022-12-08T10:54:26.335Z,99279.11
2022-12-08T10:56:56.165Z,99277.30
2022-12-08T10:59:27.445Z,99276.78
2022-12-08T11:01:56.831Z,99273.36
2022-12-08T11:04:36.172Z,99268.19
2022-12-08T11:07:12.768Z,99259.77
2022-12-08T11:09:49.198Z,99257.46
2022-12-08T11:12:21.221Z,99258.39
2022-12-08T11:15:01.343Z,99254.44
2022-12-08T11:17:39.329Z,99255.21
2022-12-08T11:20:10.016Z,99246.95
2022-12-08T11:22:39.825Z,99245.44
2022-12-08T11:25:07.362Z,99244.66
2022-12-08T11:27:37.419Z,99243.89
2022-12-08T11:30:31.091Z,99242.42
2022-12-08T11:33:08.264Z,99236.41
2022-12-08T11:35:40.425Z,99231.94
2022-12-08T11:38:23.373Z,99229.75
2022-12-08T11:41:18.967Z,99227.33
2022-12-08T11:43:56.404Z,99221.60
2022-12-08T11:46:52.277Z,99216.63
2022-12-08T11:49:20.594Z,99213.23
2022-12-08T11:51:57.492Z,99208.52
2022-12-08T11:54:48.507Z,99208.33
2022-12-08T11:57:16.578Z,99201.35
2022-12-08T11:59:49.432Z,99201.00
2022-12-08T12:02:24.349Z,99196.67
2022-12-08T12:05:39.960Z,99194.02
2022-12-08T12:08:43.735Z,99188.14
2022-12-08T12:11:40.260Z,99182.75
2022-12-08T12:14:41.543Z,99180.37
2022-12-08T12:18:17.078Z,99176.00
2022-12-08T12:21:24.586Z,99176.45
2022-12-08T12:23:57.188Z,99176.09
2022-12-08T12:26:28.323Z,99170.46
2022-12-08T12:29:05.003Z,99175.21
2022-12-08T12:31:43.762Z,99166.40
2022-12-08T12:34:18.161Z,99166.20
2022-12-08T12:37:12.920Z,99167.34
2022-12-08T12:39:55.753Z,99164.66
2022-12-08T12:42:42.781Z,99164.13
2022-12-08T12:45:34.688Z,99160.70
2022-12-08T12:48:02.199Z,99158.80
2022-12-08T12:50:34.257Z,99158.63
2022-12-08T12:53:18.004Z,99152.33
2022-12-08T12:55:45.967Z,99152.38
2022-12-08T12:58:42.509Z,99151.30
2022-12-08T13:01:10.202Z,99162.90
2022-12-08T13:03:45.575Z,99164.74
2022-12-08T13:06:15.261Z,99166.70
2022-12-08T13:08:52.469Z,99170.30
2022-12-08T13:11:21.641Z,99167.60
2022-12-08T13:14:03.368Z,99160.62
2022-12-08T13:16:39.944Z,99168.54
2022-12-08T13:19:15.905Z,99163.69
2022-12-08T13:21:43.560Z,99169.02
2022-12-08T13:24:13.785Z,99164.25
2022-12-08T13:27:06.030Z,99161.77
2022-12-08T13:29:35.157Z,99165.14
2022-12-08T13:32:09.680Z,99167.98
2022-12-08T13:34:42.735Z,99167.73
2022-12-08T13:37:10.284Z,99165.33
2022-12-08T13:39:40.734Z,99162.16
2022-12-08T13:42:35.677Z,99162.39
2022-12-08T13:45:28.004Z,99161.59
2022-12-08T13:48:25.643Z,99158.51
2022-12-08T13:59:35.417Z,99164.80
2022-12-08T14:02:45.312Z,99162.52
2022-12-08T14:05:20.443Z,99161.15
2022-12-08T14:07:53.307Z,99159.60
2022-12-08T14:10:28.414Z,99157.08
2022-12-08T14:13:00.417Z,99161.98
2022-12-08T14:15:32.683Z,99155.12
2022-12-08T14:18:05.405Z,99154.38
2022-12-08T14:20:51.813Z,99149.91
2022-12-08T14:23:22.742Z,99147.43
2022-12-08T14:25:50.334Z,99148.59
2022-12-08T14:28:18.360Z,99152.95
2022-12-08T14:30:49.430Z,99155.31
2022-12-08T14:33:17.370Z,99154.76
2022-12-08T14:35:52.181Z,99155.45
2022-12-08T14:38:22.295Z,99159.58
2022-12-08T14:41:09.676Z,99157.57
2022-12-08T14:43:37.513Z,99160.02
2022-12-08T14:46:20.619Z,99161.42
2022-12-08T14:48:48.341Z,99164.61
2022-12-08T14:51:18.916Z,99168.05
2022-12-08T14:53:52.800Z,99170.69
2022-12-08T14:56:25.799Z,99172.56
2022-12-08T14:59:19.403Z,99169.80
2022-12-08T15:01:49.590Z,99171.85
2022-12-08T15:04:23.405Z,99170.31
2022-12-08T15:07:07.192Z,99170.48
2022-12-08T15:09:35.887Z,99175.36
2022-12-08T15:12:15.735Z,99173.95
2022-12-08T15:15:09.858Z,99180.17
2022-12-08T15:18:08.537Z,99179.39
2022-12-08T15:20:39.763Z,99182.99
2022-12-08T15:23:21.017Z,99184.41
2022-12-08T15:25:49.723Z,99179.44
2022-12-08T15:28:20.588Z,99181.80
2022-12-08T15:30:50.097Z,99177.63
2022-12-08T15:33:18.213Z,99177.72
2022-12-08T15:35:48.852Z,99178.40
2022-12-08T15:38:20.956Z,99174.33
2022-12-08T15:40:48.633Z,99178.21
2022-12-08T15:43:16.247Z,99176.73
2022-12-08T15:45:57.507Z,99175.41
2022-12-08T15:48:29.100Z,99171.63
2022-12-08T15:50:57.437Z,99170.44
2022-12-08T15:53:25.823Z,99173.73
2022-12-08T15:58:58.214Z,99176.39
2022-12-08T16:01:27.146Z,99176.81
2022-12-08T16:09:37.035Z,99173.27
2022-12-08T16:12:24.349Z,99173.35
2022-12-08T16:17:40.941Z,99173.63
2022-12-08T16:20:13.895Z,99168.06
2022-12-08T16:23:08.034Z,99174.19
2022-12-08T16:25:52.651Z,99171.64
2022-12-08T16:28:52.354Z,99171.21
2022-12-08T16:31:13.011Z,99173.51
2022-12-08T16:33:41.644Z,99175.04
2022-12-08T16:36:11.174Z,99172.59
2022-12-08T16:38:38.826Z,99173.98
2022-12-08T16:41:22.544Z,99173.31
2022-12-08T16:43:51.180Z,99174.08
2022-12-08T16:46:28.637Z,99170.56
2022-12-08T16:48:59.285Z,99171.17
2022-12-08T16:51:28.016Z,99170.35
2022-12-08T16:53:56.950Z,99172.05
2022-12-08T16:56:31.893Z,99173.86
2022-12-08T16:59:01.958Z,99174.93
2022-12-08T17:01:30.065Z,99174.34
2022-12-08T17:04:30.846Z,99177.73
2022-12-08T17:06:47.039Z,99180.86
2022-12-08T17:09:14.691Z,99179.73
2022-12-08T17:11:43.566Z,99181.30
2022-12-08T17:14:13.183Z,99178.02
2022-12-08T17:16:41.355Z,99175.69
2022-12-08T17:19:10.945Z,99177.05
2022-12-08T17:21:38.567Z,99172.27
2022-12-08T17:24:06.771Z,99173.78
2022-12-08T17:26:35.270Z,99172.16
2022-12-08T17:29:04.349Z,99172.27
2022-12-08T17:31:33.028Z,99172.45
2022-12-08T17:34:03.121Z,99170.93
2022-12-08T17:36:31.401Z,99169.85
2022-12-08T17:39:00.655Z,99174.83
2022-12-08T17:41:29.543Z,99175.77
2022-12-08T17:43:57.444Z,99173.51
2022-12-08T17:46:25.422Z,99173.54
2022-12-08T17:48:53.525Z,99168.59
2022-12-08T17:51:21.228Z,99169.02
2022-12-08T17:53:48.896Z,99167.58
2022-12-08T17:56:20.835Z,99165.56
2022-12-08T17:58:54.185Z,99160.73
2022-12-08T18:01:23.690Z,99159.40
2022-12-08T18:03:52.522Z,99160.27
2022-12-08T18:06:20.241Z,99161.30
2022-12-08T18:08:48.279Z,99157.95
2022-12-08T18:11:19.312Z,99159.27
2022-12-08T18:13:48.960Z,99156.70
2022-12-08T18:16:18.802Z,99156.48
2022-12-08T18:18:46.729Z,99153.08
2022-12-08T18:21:23.101Z,99154.67
2022-12-08T18:23:51.859Z,99152.41
2022-12-08T18:26:20.284Z,99152.50
2022-12-08T18:28:48.336Z,99154.63
2022-12-08T18:31:19.781Z,99153.52
2022-12-08T18:33:48.597Z,99149.95
2022-12-08T18:36:20.342Z,99148.55
2022-12-08T18:38:48.301Z,99153.48
2022-12-08T18:41:19.006Z,99144.45
2022-12-08T18:43:46.689Z,99140.20
2022-12-08T18:46:14.947Z,99140.43
2022-12-08T18:48:46.166Z,99140.33
2022-12-08T18:51:16.655Z,99140.46
2022-12-08T18:53:45.286Z,99135.80
2022-12-08T18:56:34.186Z,99140.80
2022-12-08T18:59:08.038Z,99138.98
2022-12-08T19:01:37.411Z,99135.02
2022-12-08T19:06:57.475Z,99129.56
2022-12-08T19:09:26.801Z,99125.42
2022-12-08T19:11:55.667Z,99125.45
2022-12-08T19:14:27.836Z,99127.65
2022-12-08T19:17:00.018Z,99125.70
2022-12-08T19:19:28.011Z,99117.86
2022-12-08T19:21:56.202Z,99121.44
2022-12-08T19:24:26.122Z,99118.38
2022-12-08T19:26:53.741Z,99118.64
2022-12-08T19:29:22.641Z,99111.81
2022-12-08T19:31:50.313Z,99112.56
2022-12-08T19:34:18.095Z,99113.45
2022-12-08T19:36:45.848Z,99123.21
2022-12-08T19:39:35.641Z,99123.12
2022-12-08T19:42:20.216Z,99126.36
2022-12-08T19:44:53.956Z,99123.34
2022-12-08T19:47:26.805Z,99124.10
2022-12-08T19:50:15.346Z,99119.05
2022-12-08T19:52:44.265Z,99114.15
2022-12-08T19:55:12.831Z,99113.67
2022-12-08T19:57:40.391Z,99112.79
2022-12-08T20:00:10.252Z,99113.23
2022-12-08T20:02:39.739Z,99113.59
2022-12-08T20:05:09.350Z,99115.98
2022-12-08T20:07:37.028Z,99113.88
2022-12-08T20:10:12.696Z,99112.69
2022-12-08T20:12:40.339Z,99108.42
2022-12-08T20:15:10.106Z,99110.31
2022-12-08T20:17:38.786Z,99109.14
2022-12-08T20:20:09.881Z,99110.34
2022-12-08T20:22:37.891Z,99113.04
2022-12-08T20:25:07.468Z,99113.52
2022-12-08T20:27:35.078Z,99116.94
2022-12-08T20:30:02.876Z,99118.27
2022-12-08T20:32:31.619Z,99120.98
2022-12-08T20:34:59.198Z,99122.64
2022-12-08T20:37:26.823Z,99123.55
2022-12-08T20:39:54.498Z,99124.79
2022-12-08T20:42:23.870Z,99129.31
2022-12-08T20:44:51.512Z,99129.91
2022-12-08T20:47:19.593Z,99134.23
2022-12-08T20:49:48.563Z,99131.80
2022-12-08T20:52:16.644Z,99132.26
2022-12-08T20:54:44.298Z,99132.77
2022-12-08T20:57:11.957Z,99134.95
2022-12-08T20:59:42.086Z,99131.95
2022-12-08T21:02:11.236Z,99130.02
2022-12-08T21:04:39.385Z,99132.62
2022-12-08T21:07:08.987Z,99136.06
2022-12-08T21:09:36.973Z,99139.27
2022-12-08T21:12:05.308Z,99142.27
2022-12-08T21:14:35.126Z,99146.71
2022-12-08T21:17:02.977Z,99144.55
2022-12-08T21:19:30.965Z,99145.61
2022-12-08T21:21:58.610Z,99143.00
2022-12-08T21:24:33.497Z,99149.59
2022-12-08T21:27:01.903Z,99147.96
2022-12-08T21:29:29.581Z,99152.94
2022-12-08T21:31:58.772Z,99150.91
2022-12-08T21:34:31.928Z,99156.52
2022-12-08T21:37:01.816Z,99160.81
2022-12-08T21:39:29.575Z,99160.35
2022-12-08T21:42:14.054Z,99158.64
2022-12-08T21:44:42.023Z,99161.04
2022-12-08T21:47:09.885Z,99157.75
2022-12-08T21:49:37.886Z,99160.14
2022-12-08T21:52:05.609Z,99163.41
2022-12-08T21:54:33.424Z,99163.40
2022-12-08T21:57:01.387Z,99165.60
2022-12-08T21:59:29.641Z,99166.66
2022-12-08T22:01:57.548Z,99167.33
2022-12-08T22:04:26.551Z,99165.23
2022-12-08T22:06:54.504Z,99160.73
2022-12-08T22:09:22.434Z,99164.65
2022-12-08T22:11:50.553Z,99160.32
2022-12-08T22:14:19.337Z,99165.69
2022-12-08T22:16:47.058Z,99166.25
2022-12-08T22:19:15.275Z,99160.98
2022-12-08T22:21:43.230Z,99166.58
2022-12-08T22:24:11.070Z,99167.54
2022-12-08T22:26:38.974Z,99167.69
2022-12-08T22:29:06.840Z,99170.29
2022-12-08T22:31:34.924Z,99169.48
2022-12-08T22:34:02.879Z,99173.29
2022-12-08T22:36:30.710Z,99175.32
2022-12-08T22:38:58.397Z,99176.93
2022-12-08T22:41:27.452Z,99185.02
2022-12-08T22:43:55.175Z,99183.27
2022-12-08T22:46:26.538Z,99185.12
2022-12-08T22:48:54.682Z,99186.30
2022-12-08T22:51:22.970Z,99189.43
2022-12-08T22:53:52.014Z,99187.14
2022-12-08T22:56:19.961Z,99188.83
2022-12-08T22:58:47.823Z,99194.10
2022-12-08T23:01:29.206Z,99195.55
2022-12-08T23:03:58.313Z,99193.08
2022-12-08T23:06:28.004Z,99194.04
2022-12-08T23:08:57.227Z,99187.56
2022-12-08T23:11:29.324Z,99189.11
2022-12-08T23:14:00.651Z,99187.41
2022-12-08T23:16:28.353Z,99186.21
2022-12-08T23:18:58.762Z,99184.29
2022-12-08T23:21:29.738Z,99184.90
2022-12-08T23:23:57.405Z,99187.27
2022-12-08T23:26:27.593Z,99184.79
2022-12-08T23:29:21.867Z,99181.63
2022-12-08T23:31:58.419Z,99178.69
2022-12-08T23:34:27.219Z,99180.91
2022-12-08T23:36:55.781Z,99177.27
2022-12-08T23:39:24.717Z,99179.96
2022-12-08T23:41:52.413Z,99183.65
2022-12-08T23:44:20.232Z,99184.29
2022-12-08T23:46:49.180Z,99183.52
2022-12-08T23:49:16.964Z,99184.12
2022-12-08T23:51:44.624Z,99186.44
2022-12-08T23:54:12.632Z,99188.00
2022-12-08T23:56:40.273Z,99183.74
2022-12-08T23:59:08.184Z,99186.89
